Charleston, IL (61920)

3:30 AM CST on November 24, 2014 (GMT -0600)
Water Treatment Plant/EIU | Change Station
CLOSE
Current Station
Personal Weather Station
Location: Charleston, IL
Elevation: 700 ft
Nearby Weather Stations

Elev 700 ft 39.47 °N, 88.15 °W | Updated 30 seconds ago

Rain
Rain
53.3 °F
Feels Like 53.3 °F
N
0.0
Wind Variable Wind from SSE
Gusts 9.0 mph

Today
High -- | Low -- °F
--% Chance of Precip.
Yesterday
High -- | Low -- °F
Precip. -- in
6:46 AM 4:31 PM
Waxing Crescent, 4% visible
Pressure 29.14 in
Visibility 10.0 miles
Clouds Few 1400 ft
Mostly Cloudy 2000 ft
Overcast 7000 ft
Dew Point 52 °F
Humidity 97%
Rainfall 0.07 in
Snow Depth Not available.
UV 0 out of 12
Pollen .10 out of 12
Air Quality Not available.
Flu Activity Not available.
SPECI KMTO 240927Z AUTO 19012G17KT 10SM -RA FEW014 BKN020 OVC070 12/11 A2914 RMK AO2 RAE06B23 P0000 T01220111

More Conditions Fewer Conditions

Pressure 29.14 in
Visibility 10.0 miles
Clouds Few 1400 ft
Mostly Cloudy 2000 ft
Overcast 7000 ft
Dew Point 52 °F
Humidity 97%
Rainfall 0.07 in
Snow Depth Not available.
UV 0 out of 12
Pollen .10 out of 12
Air Quality Not available.
Flu Activity Not available.
SPECI KMTO 240927Z AUTO 19012G17KT 10SM -RA FEW014 BKN020 OVC070 12/11 A2914 RMK AO2 RAE06B23 P0000 T01220111

More Conditions Fewer Conditions

10-Day Weather Forecast

Almanac

Astronomy

Nov. 24, 2014 Rise Set
Actual Time
Civil Twilight
Nautical Twilight
Astronomical Twilight
Moon
Length of Visible Light
Length of Day
Tomorrow will be .
, % of the Moon is Illuminated

Today's Extremes

State Highs State Lows

Community

WunderPhotos

Upload Photos

1,773,294 photos uploaded!

WunderBlogs® & News

Nearby

Air Quality

  Air Quality AQ Index Pollutant
Not available.

Snow Depth

Station Depth Elevation

Earthquake Activity

City Distance Mag. Time & Date
Minimum magnitude displayed is 2.5.

Coastal Water Temperatures

Place Temperature

Nearby Weather Stations